createdAt,value
2019-02-21T00:00:06.173Z,6.79
2019-02-21T00:02:34.882Z,6.79
2019-02-21T00:05:04.099Z,6.77
2019-02-21T00:07:32.675Z,6.61
2019-02-21T00:10:01.273Z,6.57
2019-02-21T00:12:29.953Z,6.44
2019-02-21T00:14:58.895Z,6.23
2019-02-21T00:17:27.517Z,6.06
2019-02-21T00:19:56.283Z,6.11
2019-02-21T00:22:24.872Z,6.02
2019-02-21T00:24:54.432Z,6.02
2019-02-21T00:27:23.089Z,6.01
2019-02-21T00:29:51.672Z,5.93
2019-02-21T00:32:20.265Z,5.75
2019-02-21T00:34:49.185Z,5.89
2019-02-21T00:37:17.862Z,5.93
2019-02-21T00:39:46.408Z,6.08
2019-02-21T00:42:15.670Z,6.01
2019-02-21T00:44:44.180Z,6.06
2019-02-21T00:47:13.138Z,5.88
2019-02-21T00:49:41.767Z,5.66
2019-02-21T00:52:10.436Z,5.83
2019-02-21T00:54:39.128Z,5.73
2019-02-21T00:57:07.808Z,5.70
2019-02-21T00:59:36.406Z,5.69
2019-02-21T01:02:04.989Z,5.61
2019-02-21T01:04:33.596Z,5.72
2019-02-21T01:07:02.235Z,5.85
2019-02-21T01:09:30.848Z,5.72
2019-02-21T01:11:59.508Z,5.67
2019-02-21T01:14:28.110Z,5.66
2019-02-21T01:16:56.735Z,5.75
2019-02-21T01:19:25.262Z,5.83
2019-02-21T01:21:53.871Z,5.91
2019-02-21T01:24:22.451Z,6.20
2019-02-21T01:26:51.355Z,6.22
2019-02-21T01:29:19.900Z,6.42
2019-02-21T01:31:48.614Z,6.39
2019-02-21T01:34:17.436Z,6.45
2019-02-21T01:36:45.981Z,6.47
2019-02-21T01:39:14.538Z,6.34
2019-02-21T01:41:43.165Z,6.44
2019-02-21T01:44:12.025Z,6.46
2019-02-21T01:46:40.695Z,6.43
2019-02-21T01:49:09.279Z,6.21
2019-02-21T01:51:37.886Z,6.27
2019-02-21T01:54:06.821Z,6.36
2019-02-21T01:56:35.378Z,6.38
2019-02-21T01:59:03.923Z,6.18
2019-02-21T02:01:32.536Z,6.02
2019-02-21T02:04:01.158Z,6.20
2019-02-21T02:06:29.710Z,6.52
2019-02-21T02:08:58.257Z,6.39
2019-02-21T02:11:26.828Z,6.29
2019-02-21T02:13:55.423Z,6.49
2019-02-21T02:16:24.066Z,6.76
2019-02-21T02:18:52.685Z,6.74
2019-02-21T02:21:21.300Z,6.74
2019-02-21T02:23:49.880Z,6.83
2019-02-21T02:26:18.767Z,6.65
2019-02-21T02:28:47.339Z,6.49
2019-02-21T02:31:22.719Z,6.54
2019-02-21T02:33:46.136Z,6.55
2019-02-21T02:36:14.737Z,6.62
2019-02-21T02:38:43.371Z,6.55
2019-02-21T02:41:12.683Z,6.59
2019-02-21T02:43:41.248Z,6.60
2019-02-21T02:46:09.841Z,6.60
2019-02-21T02:48:38.488Z,6.57
2019-02-21T02:51:07.429Z,6.56
2019-02-21T02:53:36.072Z,6.56
2019-02-21T02:56:04.655Z,6.56
2019-02-21T02:58:33.614Z,6.52
2019-02-21T03:01:02.579Z,6.60
2019-02-21T03:03:31.297Z,6.20
2019-02-21T03:05:59.904Z,6.31
2019-02-21T03:08:28.574Z,6.22
2019-02-21T03:10:57.159Z,6.19
2019-02-21T03:13:25.835Z,6.21
2019-02-21T03:15:54.723Z,6.32
2019-02-21T03:18:23.305Z,6.25
2019-02-21T03:20:51.917Z,6.24
2019-02-21T03:23:20.575Z,6.34
2019-02-21T03:25:49.185Z,6.54
2019-02-21T03:28:17.914Z,6.32
2019-02-21T03:30:46.468Z,6.44
2019-02-21T03:33:15.113Z,6.68
2019-02-21T03:35:43.716Z,6.76
2019-02-21T03:38:12.514Z,6.73
2019-02-21T03:40:41.037Z,6.81
2019-02-21T03:43:09.649Z,6.86
2019-02-21T03:45:38.257Z,6.87
2019-02-21T03:48:06.847Z,6.88
2019-02-21T03:50:35.418Z,6.94
2019-02-21T03:53:04.399Z,6.97
2019-02-21T03:55:32.995Z,6.97
2019-02-21T03:58:01.609Z,6.94
2019-02-21T04:00:30.269Z,7.06
2019-02-21T04:02:58.872Z,6.95
2019-02-21T04:05:27.576Z,7.09
2019-02-21T04:07:56.234Z,7.17
2019-02-21T04:10:24.803Z,7.34
2019-02-21T04:12:53.371Z,7.32
2019-02-21T04:15:22.037Z,7.26
2019-02-21T04:17:50.637Z,7.31
2019-02-21T04:20:19.267Z,7.29
2019-02-21T04:22:47.802Z,7.40
2019-02-21T04:25:16.332Z,7.31
2019-02-21T04:27:44.969Z,7.42
2019-02-21T04:30:13.579Z,7.31
2019-02-21T04:32:42.346Z,7.40
2019-02-21T04:35:10.968Z,7.40
2019-02-21T04:37:39.608Z,7.40
2019-02-21T04:40:08.290Z,7.45
2019-02-21T04:42:37.283Z,7.40
2019-02-21T04:45:06.749Z,7.37
2019-02-21T04:47:35.353Z,7.37
2019-02-21T04:50:04.721Z,7.53
2019-02-21T04:52:33.253Z,7.45
2019-02-21T04:55:01.857Z,7.41
2019-02-21T04:57:30.433Z,7.41
2019-02-21T04:59:58.982Z,7.40
2019-02-21T05:02:29.546Z,7.30
2019-02-21T05:04:57.940Z,7.15
2019-02-21T05:07:26.476Z,7.30
2019-02-21T05:09:58.308Z,7.44
2019-02-21T05:12:25.467Z,7.32
2019-02-21T05:14:55.076Z,7.32
2019-02-21T05:17:23.731Z,7.32
2019-02-21T05:19:52.408Z,7.31
2019-02-21T05:22:21.003Z,7.49
2019-02-21T05:24:49.577Z,7.31
2019-02-21T05:27:19.829Z,7.40
2019-02-21T05:29:48.491Z,7.22
2019-02-21T05:32:40.478Z,7.36
2019-02-21T05:35:08.205Z,7.34
2019-02-21T05:37:54.554Z,7.29
2019-02-21T05:40:41.930Z,7.48
2019-02-21T05:43:11.442Z,7.24
2019-02-21T05:45:57.578Z,7.36
2019-02-21T05:48:27.805Z,7.35
2019-02-21T05:51:14.560Z,7.20
2019-02-21T05:53:44.765Z,7.31
2019-02-21T05:56:14.970Z,7.35
2019-02-21T05:58:48.016Z,7.30
2019-02-21T06:01:18.310Z,7.41
2019-02-21T06:03:51.113Z,7.28
2019-02-21T06:06:24.141Z,7.30
2019-02-21T06:08:57.221Z,7.38
2019-02-21T06:11:27.463Z,7.45
2019-02-21T06:14:13.804Z,7.40
2019-02-21T06:17:00.758Z,7.22
2019-02-21T06:19:39.937Z,7.27
2019-02-21T06:22:26.311Z,7.29
2019-02-21T06:24:58.964Z,7.17
2019-02-21T06:27:29.320Z,7.32
2019-02-21T06:30:02.503Z,7.41
2019-02-21T06:32:31.077Z,7.38
2019-02-21T06:35:02.435Z,7.31
2019-02-21T06:37:30.005Z,7.44
2019-02-21T06:39:58.599Z,7.42
2019-02-21T06:42:27.147Z,7.37
2019-02-21T06:44:55.754Z,7.47
2019-02-21T06:47:24.560Z,7.42
2019-02-21T06:49:53.105Z,7.40
2019-02-21T06:52:21.715Z,7.42
2019-02-21T06:54:50.268Z,7.45
2019-02-21T06:57:19.049Z,7.51
2019-02-21T06:59:47.648Z,7.52
2019-02-21T07:02:16.302Z,7.58
2019-02-21T07:04:44.932Z,7.72
2019-02-21T07:07:13.522Z,7.62
2019-02-21T07:09:42.079Z,7.63
2019-02-21T07:12:10.793Z,7.54
2019-02-21T07:14:39.458Z,7.69
2019-02-21T07:17:08.647Z,7.77
2019-02-21T07:19:37.458Z,7.76
2019-02-21T07:22:06.382Z,7.81
2019-02-21T07:24:38.334Z,7.78
2019-02-21T07:27:06.088Z,7.84
2019-02-21T07:29:34.668Z,7.82
2019-02-21T07:32:03.230Z,7.89
2019-02-21T07:34:31.842Z,7.90
2019-02-21T07:37:00.458Z,7.96
2019-02-21T07:39:36.138Z,7.88
2019-02-21T07:41:59.379Z,8.10
2019-02-21T07:44:28.071Z,8.04
2019-02-21T07:46:56.645Z,8.06
2019-02-21T07:49:25.830Z,8.13
2019-02-21T07:51:54.471Z,8.22
2019-02-21T07:54:23.144Z,8.16
2019-02-21T07:56:51.672Z,8.14
2019-02-21T07:59:20.338Z,8.08
2019-02-21T08:01:48.908Z,8.04
2019-02-21T08:04:18.548Z,8.18
2019-02-21T08:06:47.232Z,8.24
2019-02-21T08:09:15.874Z,8.12
2019-02-21T08:11:44.535Z,8.28
2019-02-21T08:14:15.947Z,8.27
2019-02-21T08:16:43.605Z,8.23
2019-02-21T08:19:12.264Z,8.19
2019-02-21T08:21:43.518Z,8.18
2019-02-21T08:24:12.017Z,8.07
2019-02-21T08:26:40.569Z,8.07
2019-02-21T08:29:09.317Z,7.97
2019-02-21T08:31:37.938Z,8.01
2019-02-21T08:34:08.284Z,7.94
2019-02-21T08:36:36.862Z,8.03
2019-02-21T08:39:07.476Z,8.00
2019-02-21T08:41:36.113Z,7.86
2019-02-21T08:44:06.666Z,7.99
2019-02-21T08:46:35.672Z,8.09
2019-02-21T08:49:06.381Z,7.96
2019-02-21T08:51:35.134Z,8.04
2019-02-21T08:54:06.187Z,8.06
2019-02-21T08:56:34.987Z,8.23
2019-02-21T08:59:03.517Z,8.27
2019-02-21T09:01:32.147Z,8.01
2019-02-21T09:04:09.923Z,8.22
2019-02-21T09:06:30.952Z,8.14
2019-02-21T09:09:01.773Z,7.98
2019-02-21T09:11:30.445Z,8.01
2019-02-21T09:13:59.575Z,8.02
2019-02-21T09:16:28.221Z,8.07
2019-02-21T09:18:56.886Z,7.90
2019-02-21T09:21:25.491Z,8.03
2019-02-21T09:23:56.595Z,7.89
2019-02-21T09:26:24.379Z,7.96
2019-02-21T09:28:53.337Z,7.99
2019-02-21T09:31:22.013Z,7.88
2019-02-21T09:33:53.743Z,7.81
2019-02-21T09:36:22.807Z,8.03
2019-02-21T09:38:51.389Z,8.03
2019-02-21T09:41:19.997Z,8.37
2019-02-21T09:43:51.315Z,8.36
2019-02-21T09:46:19.950Z,8.39
2019-02-21T09:48:48.643Z,8.56
2019-02-21T09:51:19.283Z,8.53
2019-02-21T09:53:47.881Z,8.58
2019-02-21T09:56:16.539Z,8.77
2019-02-21T09:58:45.942Z,8.76
2019-02-21T10:01:14.898Z,8.92
2019-02-21T10:03:44.304Z,8.96
2019-02-21T10:06:13.272Z,9.23
2019-02-21T10:08:41.975Z,8.91
2019-02-21T10:11:11.529Z,9.30
2019-02-21T10:13:40.291Z,9.31
2019-02-21T10:16:08.977Z,9.45
2019-02-21T10:18:37.562Z,9.24
2019-02-21T10:21:06.727Z,9.43
2019-02-21T10:23:35.367Z,9.61
2019-02-21T10:26:04.095Z,10.12
2019-02-21T10:28:32.670Z,9.87
2019-02-21T10:31:01.359Z,9.58
2019-02-21T10:33:29.975Z,9.97
2019-02-21T10:36:00.482Z,10.02
2019-02-21T10:38:28.985Z,9.58
2019-02-21T10:40:58.053Z,9.86
2019-02-21T10:43:26.658Z,9.50
2019-02-21T10:45:55.336Z,9.97
2019-02-21T10:48:23.944Z,10.24
2019-02-21T10:50:52.671Z,10.56
2019-02-21T10:53:21.332Z,10.71
2019-02-21T10:55:49.974Z,10.96
2019-02-21T10:58:19.275Z,11.12
2019-02-21T11:00:48.015Z,11.36
2019-02-21T11:03:16.542Z,11.27
2019-02-21T11:05:45.174Z,11.28
2019-02-21T11:08:13.837Z,11.67
2019-02-21T11:10:42.485Z,12.18
2019-02-21T11:13:11.437Z,12.60
2019-02-21T11:15:42.016Z,13.04
2019-02-21T11:18:10.585Z,12.89
2019-02-21T11:20:40.266Z,13.38
2019-02-21T11:23:08.894Z,13.06
2019-02-21T11:25:37.521Z,12.93
2019-02-21T11:28:06.117Z,12.84
2019-02-21T11:30:34.834Z,13.42
2019-02-21T11:33:03.484Z,12.44
2019-02-21T11:35:32.301Z,11.92
2019-02-21T11:38:00.862Z,11.89
2019-02-21T11:40:29.602Z,12.39
2019-02-21T11:42:59.261Z,12.08
2019-02-21T11:45:28.059Z,12.15
2019-02-21T11:47:56.723Z,12.08
2019-02-21T11:50:25.441Z,12.73
2019-02-21T11:52:54.127Z,12.34
2019-02-21T11:55:25.030Z,12.50
2019-02-21T11:57:53.614Z,12.10
2019-02-21T12:00:28.233Z,11.98
2019-02-21T12:02:56.919Z,11.94
2019-02-21T12:05:31.385Z,12.59
2019-02-21T12:07:55.819Z,13.44
2019-02-21T12:10:24.366Z,14.89
2019-02-21T12:12:53.040Z,15.65
2019-02-21T12:15:22.730Z,14.81
2019-02-21T12:17:51.384Z,12.70
2019-02-21T12:20:20.790Z,12.73
2019-02-21T12:22:50.514Z,12.68
2019-02-21T12:25:21.481Z,12.52
2019-02-21T12:27:50.184Z,12.28
2019-02-21T12:30:19.797Z,12.35
2019-02-21T12:32:48.815Z,12.07
2019-02-21T12:35:28.712Z,11.95
2019-02-21T12:37:47.859Z,11.99
2019-02-21T12:40:22.265Z,11.83
2019-02-21T12:42:51.537Z,11.92
2019-02-21T12:45:24.661Z,11.92
2019-02-21T12:47:54.311Z,11.74
2019-02-21T12:50:23.305Z,11.76
2019-02-21T12:52:52.294Z,11.73
2019-02-21T12:55:28.022Z,11.44
2019-02-21T12:57:51.566Z,11.27
2019-02-21T13:00:22.216Z,11.26
2019-02-21T13:02:50.971Z,11.14
2019-02-21T13:05:20.087Z,11.21
2019-02-21T13:07:48.841Z,11.12
2019-02-21T13:10:19.424Z,11.21
2019-02-21T13:12:47.995Z,11.18
2019-02-21T13:15:17.847Z,11.17
2019-02-21T13:17:46.465Z,11.22
2019-02-21T13:20:15.800Z,11.19
2019-02-21T13:22:44.508Z,11.21
2019-02-21T13:25:17.928Z,11.17
2019-02-21T13:27:46.896Z,11.10
2019-02-21T13:30:18.852Z,11.10
2019-02-21T13:32:47.684Z,11.21
2019-02-21T13:35:16.633Z,11.30
2019-02-21T13:37:45.662Z,11.21
2019-02-21T13:40:17.226Z,11.16
2019-02-21T13:42:46.204Z,11.23
2019-02-21T13:45:17.982Z,11.28
2019-02-21T13:47:46.957Z,11.32
2019-02-21T13:50:20.335Z,11.43
2019-02-21T13:52:48.927Z,11.40
2019-02-21T13:55:17.495Z,11.33
2019-02-21T13:57:46.148Z,11.19
2019-02-21T14:00:22.033Z,11.21
2019-02-21T14:02:50.704Z,11.25
2019-02-21T14:05:19.471Z,11.22
2019-02-21T14:07:48.119Z,11.21
2019-02-21T14:10:17.059Z,11.09
2019-02-21T14:12:45.899Z,11.12
2019-02-21T14:15:20.474Z,11.13
2019-02-21T14:17:49.204Z,11.04
2019-02-21T14:20:17.883Z,11.00
2019-02-21T14:22:47.499Z,10.92
2019-02-21T14:25:16.219Z,10.98
2019-02-21T14:27:44.910Z,10.92
2019-02-21T14:30:18.461Z,10.85
2019-02-21T14:32:47.129Z,10.80
2019-02-21T14:35:16.765Z,10.89
2019-02-21T14:37:45.476Z,10.69
2019-02-21T14:40:15.301Z,10.62
2019-02-21T14:42:43.881Z,10.65
2019-02-21T14:45:18.271Z,10.65
2019-02-21T14:47:46.926Z,10.56
2019-02-21T14:50:15.717Z,10.44
2019-02-21T14:52:44.363Z,10.41
2019-02-21T14:55:17.226Z,10.37
2019-02-21T14:57:45.879Z,10.33
2019-02-21T15:00:28.769Z,10.34
2019-02-21T15:02:58.516Z,10.36
2019-02-21T15:05:27.051Z,10.41
2019-02-21T15:07:55.601Z,10.50
2019-02-21T15:10:25.432Z,10.37
2019-02-21T15:12:54.386Z,10.48
2019-02-21T15:15:26.944Z,10.32
2019-02-21T15:18:06.589Z,10.37
2019-02-21T15:20:36.389Z,10.43
2019-02-21T15:22:56.222Z,10.43
2019-02-21T15:25:24.777Z,10.45
2019-02-21T15:27:53.570Z,10.46
2019-02-21T15:30:24.021Z,10.46
2019-02-21T15:32:52.610Z,10.44
2019-02-21T15:35:21.172Z,10.45
2019-02-21T15:37:49.786Z,10.51
2019-02-21T15:40:18.423Z,10.53
2019-02-21T15:42:47.085Z,10.37
2019-02-21T15:45:24.425Z,10.42
2019-02-21T15:47:53.504Z,10.37
2019-02-21T15:50:22.188Z,10.53
2019-02-21T15:52:52.667Z,10.51
2019-02-21T15:55:22.142Z,10.48
2019-02-21T15:58:03.356Z,10.38
2019-02-21T16:00:25.163Z,10.32
2019-02-21T16:02:53.862Z,10.42
2019-02-21T16:05:22.550Z,10.48
2019-02-21T16:07:51.526Z,10.44
2019-02-21T16:10:25.088Z,10.35
2019-02-21T16:12:54.987Z,10.32
2019-02-21T16:15:23.775Z,10.26
2019-02-21T16:17:52.576Z,10.30
2019-02-21T16:20:21.652Z,10.25
2019-02-21T16:22:50.292Z,10.33
2019-02-21T16:25:28.208Z,10.29
2019-02-21T16:27:56.820Z,10.24
2019-02-21T16:30:25.384Z,10.20
2019-02-21T16:32:54.065Z,10.15
2019-02-21T16:35:22.775Z,10.19
2019-02-21T16:37:51.503Z,10.08
2019-02-21T16:40:20.586Z,10.15
2019-02-21T16:42:49.198Z,10.22
2019-02-21T16:45:20.023Z,10.21
2019-02-21T16:47:48.679Z,10.19
2019-02-21T16:50:28.818Z,10.30
2019-02-21T16:52:47.755Z,10.23
2019-02-21T16:55:21.325Z,10.20
2019-02-21T16:57:50.310Z,10.22
2019-02-21T17:00:20.618Z,10.14
2019-02-21T17:02:49.236Z,10.22
2019-02-21T17:05:17.826Z,10.17
2019-02-21T17:07:47.522Z,10.11
2019-02-21T17:10:17.031Z,10.13
2019-02-21T17:12:45.726Z,10.07
2019-02-21T17:15:16.110Z,10.14
2019-02-21T17:17:44.685Z,10.15
2019-02-21T17:20:19.063Z,10.23
2019-02-21T17:22:47.692Z,10.20
2019-02-21T17:25:16.711Z,10.18
2019-02-21T17:27:45.986Z,10.13
2019-02-21T17:30:19.092Z,10.26
2019-02-21T17:32:47.765Z,10.27
2019-02-21T17:35:16.523Z,10.22
2019-02-21T17:37:45.229Z,10.35
2019-02-21T17:40:16.507Z,10.32
2019-02-21T17:42:45.203Z,10.28
2019-02-21T17:45:16.810Z,10.43
2019-02-21T17:47:45.838Z,10.42
2019-02-21T17:50:16.733Z,10.32
2019-02-21T17:52:45.487Z,10.28
2019-02-21T17:55:15.234Z,10.45
2019-02-21T17:57:44.178Z,10.46
2019-02-21T18:00:22.330Z,10.41
2019-02-21T18:02:51.124Z,10.22
2019-02-21T18:05:19.928Z,10.15
2019-02-21T18:07:48.654Z,10.12
2019-02-21T18:10:18.543Z,10.05
2019-02-21T18:12:47.305Z,9.96
2019-02-21T18:15:17.242Z,9.91
2019-02-21T18:17:45.898Z,9.73
2019-02-21T18:20:15.564Z,9.71
2019-02-21T18:22:44.791Z,9.67
2019-02-21T18:25:16.877Z,9.51
2019-02-21T18:27:45.474Z,9.51
2019-02-21T18:30:16.681Z,9.44
2019-02-21T18:32:45.243Z,9.35
2019-02-21T18:35:13.974Z,9.29
2019-02-21T18:37:47.436Z,9.26
2019-02-21T18:40:21.955Z,9.19
2019-02-21T18:42:50.688Z,9.24
2019-02-21T18:45:19.400Z,9.16
2019-02-21T18:47:48.175Z,9.03
2019-02-21T18:50:17.169Z,9.23
2019-02-21T18:52:45.835Z,9.17
2019-02-21T18:55:14.576Z,9.16
2019-02-21T18:57:44.779Z,9.24
2019-02-21T19:00:16.939Z,9.13
2019-02-21T19:02:46.426Z,9.13
2019-02-21T19:05:15.084Z,9.14
2019-02-21T19:07:43.818Z,9.10
2019-02-21T19:10:17.625Z,9.04
2019-02-21T19:12:46.447Z,9.04
2019-02-21T19:15:17.073Z,9.04
2019-02-21T19:17:46.055Z,9.02
2019-02-21T19:20:16.500Z,8.93
2019-02-21T19:22:45.289Z,8.47
2019-02-21T19:25:14.816Z,9.10
2019-02-21T19:27:43.571Z,8.96
2019-02-21T19:30:15.560Z,9.16
2019-02-21T19:32:45.531Z,9.17
2019-02-21T19:35:14.186Z,9.19
2019-02-21T19:37:42.942Z,9.07
2019-02-21T19:40:11.855Z,9.02
2019-02-21T19:42:40.612Z,9.09
2019-02-21T19:45:10.085Z,9.17
2019-02-21T19:47:40.419Z,9.19
2019-02-21T19:50:10.112Z,8.99
2019-02-21T19:52:39.034Z,8.95
2019-02-21T19:55:11.356Z,9.07
2019-02-21T19:57:40.064Z,9.13
2019-02-21T20:00:15.596Z,9.07
2019-02-21T20:02:44.190Z,9.11
2019-02-21T20:05:12.796Z,9.04
2019-02-21T20:07:42.548Z,9.04
2019-02-21T20:10:12.164Z,9.05
2019-02-21T20:12:40.851Z,8.98
2019-02-21T20:15:11.649Z,9.02
2019-02-21T20:17:40.364Z,8.97
2019-02-21T20:20:23.665Z,8.96
2019-02-21T20:22:53.008Z,8.98
2019-02-21T20:25:21.627Z,8.97
2019-02-21T20:27:50.306Z,8.96
2019-02-21T20:30:19.736Z,9.04
2019-02-21T20:32:48.416Z,9.04
2019-02-21T20:35:16.998Z,9.03
2019-02-21T20:37:45.627Z,9.06
2019-02-21T20:40:14.464Z,9.05
2019-02-21T20:42:43.229Z,9.04
2019-02-21T20:45:14.136Z,9.10
2019-02-21T20:47:42.926Z,8.99
2019-02-21T20:50:12.756Z,9.07
2019-02-21T20:52:41.791Z,9.01
2019-02-21T20:55:11.637Z,9.01
2019-02-21T20:57:40.324Z,8.98
2019-02-21T21:00:17.215Z,8.99
2019-02-21T21:02:45.787Z,9.04
2019-02-21T21:05:14.827Z,8.95
2019-02-21T21:07:43.583Z,8.96
2019-02-21T21:10:14.421Z,8.87
2019-02-21T21:12:43.119Z,9.04
2019-02-21T21:15:13.519Z,8.95
2019-02-21T21:17:42.179Z,8.93
2019-02-21T21:20:17.093Z,8.97
2019-02-21T21:22:43.357Z,9.09
2019-02-21T21:25:19.451Z,9.08
2019-02-21T21:27:48.182Z,9.02
2019-02-21T21:30:18.015Z,8.90
2019-02-21T21:32:46.760Z,9.04
2019-02-21T21:35:15.303Z,9.04
2019-02-21T21:37:43.964Z,9.08
2019-02-21T21:40:19.404Z,9.10
2019-02-21T21:42:48.152Z,9.18
2019-02-21T21:45:18.941Z,9.10
2019-02-21T21:47:47.593Z,9.11
2019-02-21T21:50:19.932Z,9.12
2019-02-21T21:52:48.583Z,9.18
2019-02-21T21:55:17.326Z,9.16
2019-02-21T21:57:45.907Z,9.22
2019-02-21T22:00:23.236Z,9.17
2019-02-21T22:02:52.881Z,9.19
2019-02-21T22:05:21.534Z,9.19
2019-02-21T22:07:50.230Z,9.23
2019-02-21T22:10:18.907Z,9.20
2019-02-21T22:12:47.703Z,9.21
2019-02-21T22:15:20.725Z,9.20
2019-02-21T22:17:49.389Z,9.17
2019-02-21T22:20:18.119Z,9.19
2019-02-21T22:22:46.678Z,9.21
2019-02-21T22:25:15.272Z,9.11
2019-02-21T22:27:47.110Z,9.12
2019-02-21T22:30:19.798Z,9.13
2019-02-21T22:32:48.434Z,9.08
2019-02-21T22:35:16.973Z,9.11
2019-02-21T22:37:45.672Z,9.11
2019-02-21T22:40:17.164Z,9.13
2019-02-21T22:42:45.745Z,9.18
2019-02-21T22:45:14.361Z,9.16
2019-02-21T22:47:43.022Z,9.06
2019-02-21T22:50:16.896Z,9.06
2019-02-21T22:52:45.535Z,9.08
2019-02-21T22:55:14.210Z,9.08
2019-02-21T22:57:42.832Z,9.12
2019-02-21T23:00:39.927Z,9.06
2019-02-21T23:03:10.897Z,9.12
2019-02-21T23:05:59.094Z,9.12
2019-02-21T23:08:42.902Z,9.11
2019-02-21T23:11:11.531Z,9.09
2019-02-21T23:13:40.086Z,9.11
2019-02-21T23:16:08.741Z,9.11
2019-02-21T23:18:37.275Z,9.14
2019-02-21T23:21:05.919Z,9.12
2019-02-21T23:23:34.457Z,9.08
2019-02-21T23:26:03.008Z,9.09
2019-02-21T23:28:31.534Z,9.10
2019-02-21T23:31:00.173Z,9.08
2019-02-21T23:33:30.125Z,9.13
2019-02-21T23:35:58.724Z,9.09
2019-02-21T23:38:27.242Z,9.09
2019-02-21T23:40:55.800Z,9.11
2019-02-21T23:43:24.336Z,9.09
2019-02-21T23:45:52.937Z,9.11
2019-02-21T23:48:21.492Z,9.07
2019-02-21T23:50:50.104Z,9.05
2019-02-21T23:53:18.638Z,8.95
2019-02-21T23:55:47.224Z,9.04
2019-02-21T23:58:15.841Z,9.09
